Columbus, Ohio
Current Conditions -  °F | °C
As of 6:01 PM on Wednesday 22 Oct 2014 (Local Time) from KCMH Reporting Station
Overcast Overcast  
Wind Chill: 50°   Ceiling: 3000
Heat Index: 50°   Visibility: 10mi
Dew Point: 39°   Wind: 9mph
Humidity: 66%   Direction: 350°N
Pressure: 30.24"   Gusts: NA
Location:  39.96°N, 83°W
Report Text: KCMH 222201Z 35008KT 10SM OVC030 10/04 A3024 RMK AO2
Loading
Personal Weather Stations






























Interactive Weather Map New forecast layout! Learn more

10-Day Weather Forecast

Advertisements
Track Severe Weather on mobile